createdAt,value
2023-03-29T00:01:00.991Z,72.86
2023-03-29T00:02:03.999Z,72.97
2023-03-29T00:03:06.320Z,72.80
2023-03-29T00:04:10.427Z,72.74
2023-03-29T00:05:13.453Z,72.68
2023-03-29T00:06:22.648Z,73.61
2023-03-29T00:07:26.379Z,73.07
2023-03-29T00:08:29.910Z,72.84
2023-03-29T00:09:36.183Z,73.55
2023-03-29T00:10:38.110Z,73.68
2023-03-29T00:11:40.361Z,73.12
2023-03-29T00:12:42.370Z,73.08
2023-03-29T00:13:44.775Z,72.86
2023-03-29T00:14:46.566Z,73.06
2023-03-29T00:15:48.575Z,73.56
2023-03-29T00:16:50.706Z,72.87
2023-03-29T00:17:52.754Z,73.61
2023-03-29T00:18:55.783Z,73.53
2023-03-29T00:19:58.161Z,73.68
2023-03-29T00:21:01.273Z,74.04
2023-03-29T00:22:06.891Z,74.20
2023-03-29T00:23:08.982Z,74.19
2023-03-29T00:24:11.039Z,73.74
2023-03-29T00:25:14.148Z,73.98
2023-03-29T00:26:16.301Z,74.17
2023-03-29T00:27:18.293Z,74.11
2023-03-29T00:28:20.479Z,74.41
2023-03-29T00:29:22.510Z,73.99
2023-03-29T00:30:24.532Z,74.28
2023-03-29T00:31:27.655Z,73.61
2023-03-29T00:32:29.772Z,73.57
2023-03-29T00:33:32.446Z,73.80
2023-03-29T00:34:36.484Z,73.67
2023-03-29T00:35:39.756Z,74.20
2023-03-29T00:36:41.700Z,73.64
2023-03-29T00:37:43.790Z,74.02
2023-03-29T00:38:45.876Z,73.61
2023-03-29T00:39:48.425Z,74.39
2023-03-29T00:40:50.413Z,73.47
2023-03-29T00:41:52.486Z,73.10
2023-03-29T00:42:56.515Z,73.76
2023-03-29T00:44:01.366Z,72.96
2023-03-29T00:45:10.481Z,73.50
2023-03-29T00:46:12.467Z,74.12
2023-03-29T00:47:14.578Z,74.23
2023-03-29T00:48:27.468Z,74.02
2023-03-29T00:49:29.852Z,74.36
2023-03-29T00:50:39.813Z,74.48
2023-03-29T00:51:42.883Z,74.46
2023-03-29T00:52:55.253Z,74.63
2023-03-29T00:54:02.111Z,74.39
2023-03-29T00:55:11.731Z,73.89
2023-03-29T00:56:23.091Z,74.21
2023-03-29T00:57:27.938Z,74.43
2023-03-29T00:58:38.509Z,73.98
2023-03-29T00:59:43.024Z,74.36
2023-03-29T01:00:55.661Z,74.22
2023-03-29T01:02:02.396Z,74.20
2023-03-29T01:03:13.978Z,74.45
2023-03-29T01:04:29.692Z,74.33
2023-03-29T01:05:38.167Z,75.25
2023-03-29T01:06:43.923Z,74.82
2023-03-29T01:08:11.313Z,74.75
2023-03-29T01:09:16.724Z,75.57
2023-03-29T01:10:39.975Z,75.29
2023-03-29T01:11:47.794Z,74.72
2023-03-29T01:12:56.615Z,74.92
2023-03-29T01:14:35.761Z,75.01
2023-03-29T01:15:41.373Z,74.92
2023-03-29T01:16:43.470Z,75.19
2023-03-29T01:17:51.065Z,75.55
2023-03-29T01:18:53.234Z,75.31
2023-03-29T01:20:10.918Z,75.62
2023-03-29T01:21:33.752Z,75.21
2023-03-29T01:22:56.103Z,75.16
2023-03-29T01:24:25.071Z,75.77
2023-03-29T01:25:34.834Z,75.45
2023-03-29T01:27:15.857Z,75.41
2023-03-29T01:28:34.730Z,75.29
2023-03-29T01:29:47.304Z,75.36
2023-03-29T01:31:07.319Z,74.86
2023-03-29T01:32:39.742Z,75.26
2023-03-29T01:33:48.936Z,75.75
2023-03-29T01:35:04.254Z,75.73
2023-03-29T01:36:37.397Z,75.41
2023-03-29T01:38:07.544Z,75.39
2023-03-29T01:39:09.581Z,75.38
2023-03-29T01:40:12.365Z,74.82
2023-03-29T01:41:15.019Z,74.77
2023-03-29T01:42:31.969Z,74.62
2023-03-29T01:43:37.441Z,74.55
2023-03-29T01:44:49.208Z,74.54
2023-03-29T01:46:14.258Z,73.74
2023-03-29T01:47:36.391Z,73.48
2023-03-29T01:48:51.159Z,73.71
2023-03-29T01:50:18.279Z,73.36
2023-03-29T01:51:36.130Z,73.03
2023-03-29T01:52:53.295Z,73.06
2023-03-29T01:54:01.819Z,73.82
2023-03-29T01:55:11.241Z,74.12
2023-03-29T01:56:26.625Z,73.89
2023-03-29T01:57:31.573Z,74.04
2023-03-29T01:58:38.558Z,74.77
2023-03-29T01:59:44.958Z,74.33
2023-03-29T02:00:47.473Z,74.17
2023-03-29T02:01:51.166Z,74.88
2023-03-29T02:02:55.153Z,73.86
2023-03-29T02:04:03.196Z,74.21
2023-03-29T02:05:06.974Z,73.67
2023-03-29T02:06:12.410Z,73.26
2023-03-29T02:07:17.856Z,72.48
2023-03-29T02:08:22.610Z,72.91
2023-03-29T02:09:24.785Z,72.44
2023-03-29T02:10:28.378Z,72.04
2023-03-29T02:11:30.811Z,72.23
2023-03-29T02:12:32.929Z,72.56
2023-03-29T02:13:36.580Z,72.84
2023-03-29T02:14:39.153Z,71.96
2023-03-29T02:15:41.201Z,72.07
2023-03-29T02:16:43.263Z,72.65
2023-03-29T02:17:46.562Z,71.98
2023-03-29T02:18:50.708Z,72.14
2023-03-29T02:20:23.784Z,72.99
2023-03-29T02:21:37.157Z,72.38
2023-03-29T02:22:46.758Z,72.84
2023-03-29T02:23:50.751Z,73.61
2023-03-29T02:24:59.487Z,72.31
2023-03-29T02:26:04.113Z,72.50
2023-03-29T02:27:06.478Z,72.57
2023-03-29T02:28:08.691Z,73.19
2023-03-29T02:29:11.312Z,73.15
2023-03-29T02:30:14.821Z,72.67
2023-03-29T02:31:43.163Z,72.56
2023-03-29T02:33:00.874Z,72.75
2023-03-29T02:34:09.046Z,72.58
2023-03-29T02:35:17.418Z,72.61
2023-03-29T02:36:24.390Z,72.43
2023-03-29T02:37:30.486Z,72.57
2023-03-29T02:38:33.444Z,72.66
2023-03-29T02:39:37.250Z,72.95
2023-03-29T02:40:42.272Z,72.93
2023-03-29T02:41:47.668Z,72.93
2023-03-29T02:42:50.255Z,72.38
2023-03-29T02:43:54.236Z,72.73
2023-03-29T02:44:59.364Z,72.00
2023-03-29T02:46:03.303Z,72.63
2023-03-29T02:47:17.733Z,72.64
2023-03-29T02:48:22.073Z,71.93
2023-03-29T02:49:25.113Z,72.24
2023-03-29T02:50:30.964Z,71.51
2023-03-29T02:51:34.464Z,71.58
2023-03-29T02:52:41.335Z,71.58
2023-03-29T02:53:50.261Z,71.06
2023-03-29T02:54:54.758Z,71.34
2023-03-29T02:55:56.708Z,71.61
2023-03-29T02:57:01.003Z,71.42
2023-03-29T02:58:08.502Z,70.98
2023-03-29T02:59:12.404Z,71.22
2023-03-29T03:00:19.096Z,71.23
2023-03-29T03:01:21.261Z,71.24
2023-03-29T03:02:26.388Z,70.70
2023-03-29T03:03:29.454Z,71.32
2023-03-29T03:04:32.282Z,71.91
2023-03-29T03:05:35.242Z,72.53
2023-03-29T03:06:38.364Z,71.42
2023-03-29T03:07:40.920Z,71.28
2023-03-29T03:08:42.666Z,70.65
2023-03-29T03:09:44.811Z,70.79
2023-03-29T03:10:47.129Z,71.19
2023-03-29T03:11:49.156Z,71.78
2023-03-29T03:12:51.279Z,71.79
2023-03-29T03:13:53.246Z,71.50
2023-03-29T03:14:55.220Z,71.00
2023-03-29T03:15:57.361Z,70.81
2023-03-29T03:16:59.911Z,71.59
2023-03-29T03:18:03.921Z,71.18
2023-03-29T03:19:06.433Z,70.52
2023-03-29T03:20:13.953Z,70.70
2023-03-29T03:21:16.206Z,70.54
2023-03-29T03:22:18.599Z,70.76
2023-03-29T03:23:20.443Z,70.34
2023-03-29T03:24:22.472Z,69.53
2023-03-29T03:25:24.676Z,70.00
2023-03-29T03:26:30.447Z,69.90
2023-03-29T03:27:34.439Z,69.15
2023-03-29T03:28:36.486Z,68.90
2023-03-29T03:29:39.153Z,69.04
2023-03-29T03:30:41.172Z,69.04
2023-03-29T03:31:43.311Z,68.61
2023-03-29T03:32:45.352Z,68.47
2023-03-29T03:33:47.424Z,68.94
2023-03-29T03:34:49.914Z,68.96
2023-03-29T03:35:51.830Z,69.66
2023-03-29T03:36:58.239Z,68.78
2023-03-29T03:38:00.485Z,68.78
2023-03-29T03:39:06.036Z,69.03
2023-03-29T03:40:09.448Z,68.19
2023-03-29T03:41:11.413Z,69.08
2023-03-29T03:42:13.332Z,68.60
2023-03-29T03:43:15.331Z,68.80
2023-03-29T03:44:17.486Z,68.70
2023-03-29T03:45:19.528Z,69.83
2023-03-29T03:46:21.855Z,68.81
2023-03-29T03:47:24.071Z,69.63
2023-03-29T03:48:26.586Z,69.05
2023-03-29T03:49:28.378Z,69.04
2023-03-29T03:50:30.421Z,69.29
2023-03-29T03:51:32.446Z,68.80
2023-03-29T03:52:34.422Z,68.76
2023-03-29T03:53:36.473Z,69.25
2023-03-29T03:54:38.502Z,69.37
2023-03-29T03:55:40.504Z,69.35
2023-03-29T03:56:42.567Z,68.99
2023-03-29T03:57:44.895Z,68.40
2023-03-29T03:58:47.885Z,68.89
2023-03-29T03:59:49.914Z,68.36
2023-03-29T04:00:52.146Z,69.33
2023-03-29T04:01:54.195Z,69.07
2023-03-29T04:02:56.648Z,69.05
2023-03-29T04:03:58.663Z,69.89
2023-03-29T04:05:03.555Z,70.03
2023-03-29T04:06:06.522Z,69.21
2023-03-29T04:07:08.899Z,69.67
2023-03-29T04:08:12.815Z,70.09
2023-03-29T04:09:14.864Z,70.56
2023-03-29T04:10:17.386Z,69.67
2023-03-29T04:11:19.384Z,70.18
2023-03-29T04:12:21.418Z,70.00
2023-03-29T04:13:24.493Z,70.48
2023-03-29T04:14:27.561Z,70.13
2023-03-29T04:15:30.216Z,70.79
2023-03-29T04:16:32.243Z,70.81
2023-03-29T04:17:34.720Z,70.11
2023-03-29T04:18:36.912Z,69.66
2023-03-29T04:19:38.992Z,69.05
2023-03-29T04:20:41.020Z,69.77
2023-03-29T04:21:45.938Z,69.48
2023-03-29T04:22:47.950Z,69.57
2023-03-29T04:23:49.991Z,69.28
2023-03-29T04:24:52.666Z,69.30
2023-03-29T04:25:56.834Z,68.99
2023-03-29T04:26:58.830Z,68.94
2023-03-29T04:28:00.932Z,69.29
2023-03-29T04:29:03.035Z,69.45
2023-03-29T04:30:07.746Z,68.92
2023-03-29T04:31:14.395Z,68.85
2023-03-29T04:32:16.409Z,68.53
2023-03-29T04:33:19.017Z,68.67
2023-03-29T04:34:21.063Z,69.54
2023-03-29T04:35:23.434Z,69.11
2023-03-29T04:36:26.213Z,68.39
2023-03-29T04:37:29.964Z,69.00
2023-03-29T04:38:36.286Z,69.18
2023-03-29T04:39:39.245Z,69.08
2023-03-29T04:40:41.230Z,68.71
2023-03-29T04:41:43.308Z,68.61
2023-03-29T04:42:47.691Z,68.79
2023-03-29T04:43:49.708Z,69.28
2023-03-29T04:44:51.804Z,68.92
2023-03-29T04:45:54.565Z,68.27
2023-03-29T04:46:56.690Z,67.52
2023-03-29T04:48:02.364Z,68.57
2023-03-29T04:49:04.607Z,68.59
2023-03-29T04:50:08.527Z,68.86
2023-03-29T04:51:10.514Z,68.21
2023-03-29T04:52:12.574Z,68.18
2023-03-29T04:53:14.653Z,68.42
2023-03-29T04:54:16.692Z,68.06
2023-03-29T04:55:18.783Z,68.94
2023-03-29T04:56:20.738Z,68.04
2023-03-29T04:57:22.844Z,68.60
2023-03-29T04:58:28.275Z,68.58
2023-03-29T04:59:34.049Z,69.21
2023-03-29T05:00:36.134Z,68.68
2023-03-29T05:01:38.220Z,69.02
2023-03-29T05:02:40.327Z,68.03
2023-03-29T05:03:42.412Z,68.30
2023-03-29T05:04:44.496Z,68.62
2023-03-29T05:05:46.485Z,68.83
2023-03-29T05:06:49.264Z,67.93
2023-03-29T05:07:51.563Z,68.36
2023-03-29T05:08:53.742Z,68.73
2023-03-29T05:09:55.738Z,67.96
2023-03-29T05:10:57.902Z,68.11
2023-03-29T05:11:59.896Z,68.27
2023-03-29T05:13:04.240Z,68.38
2023-03-29T05:14:07.595Z,68.27
2023-03-29T05:15:10.210Z,68.06
2023-03-29T05:16:12.423Z,68.15
2023-03-29T05:17:14.732Z,68.62
2023-03-29T05:18:16.626Z,68.53
2023-03-29T05:19:21.987Z,67.64
2023-03-29T05:20:25.280Z,67.41
2023-03-29T05:21:28.693Z,68.70
2023-03-29T05:22:31.701Z,68.00
2023-03-29T05:23:34.612Z,68.38
2023-03-29T05:24:36.719Z,67.87
2023-03-29T05:25:38.820Z,67.63
2023-03-29T05:26:40.780Z,67.85
2023-03-29T05:27:43.541Z,67.54
2023-03-29T05:28:46.283Z,66.97
2023-03-29T05:29:49.231Z,66.46
2023-03-29T05:31:02.715Z,66.97
2023-03-29T05:32:05.190Z,66.91
2023-03-29T05:33:07.439Z,66.25
2023-03-29T05:34:09.421Z,66.52
2023-03-29T05:35:12.003Z,66.67
2023-03-29T05:36:15.832Z,65.87
2023-03-29T05:37:18.132Z,66.85
2023-03-29T05:38:20.116Z,66.29
2023-03-29T05:39:22.086Z,66.07
2023-03-29T05:40:27.437Z,66.87
2023-03-29T05:41:29.580Z,66.20
2023-03-29T05:42:31.864Z,66.73
2023-03-29T05:43:33.996Z,66.53
2023-03-29T05:44:35.956Z,66.28
2023-03-29T05:45:37.958Z,66.40
2023-03-29T05:46:40.019Z,66.77
2023-03-29T05:47:42.017Z,67.00
2023-03-29T05:48:44.340Z,67.29
2023-03-29T05:49:46.579Z,66.97
2023-03-29T05:50:50.292Z,67.01
2023-03-29T05:51:52.614Z,66.93
2023-03-29T05:52:54.589Z,66.47
2023-03-29T05:53:56.855Z,65.86
2023-03-29T05:54:58.932Z,66.04
2023-03-29T05:56:02.536Z,67.17
2023-03-29T05:57:04.874Z,66.36
2023-03-29T05:58:07.113Z,67.71
2023-03-29T05:59:09.117Z,67.08
2023-03-29T06:00:24.341Z,67.05
2023-03-29T06:01:26.756Z,66.89
2023-03-29T06:02:28.922Z,66.17
2023-03-29T06:03:31.238Z,65.77
2023-03-29T06:04:33.913Z,65.93
2023-03-29T06:05:37.116Z,66.71
2023-03-29T06:06:39.194Z,65.99
2023-03-29T06:07:41.217Z,66.27
2023-03-29T06:08:44.687Z,65.53
2023-03-29T06:09:46.666Z,65.81
2023-03-29T06:10:49.671Z,66.12
2023-03-29T06:11:52.077Z,67.03
2023-03-29T06:12:54.024Z,66.67
2023-03-29T06:13:56.040Z,65.79
2023-03-29T06:15:03.497Z,66.11
2023-03-29T06:16:06.725Z,65.91
2023-03-29T06:17:08.769Z,66.58
2023-03-29T06:18:11.265Z,66.49
2023-03-29T06:19:13.160Z,67.17
2023-03-29T06:20:15.336Z,67.70
2023-03-29T06:21:17.351Z,66.85
2023-03-29T06:22:19.400Z,67.82
2023-03-29T06:23:22.818Z,67.49
2023-03-29T06:24:25.261Z,67.55
2023-03-29T06:25:27.120Z,67.46
2023-03-29T06:26:29.473Z,67.95
2023-03-29T06:27:31.803Z,68.56
2023-03-29T06:28:33.820Z,68.55
2023-03-29T06:29:36.071Z,68.20
2023-03-29T06:30:39.562Z,69.21
2023-03-29T06:31:42.556Z,69.15
2023-03-29T06:32:44.902Z,69.56
2023-03-29T06:33:47.801Z,70.31
2023-03-29T06:34:50.261Z,71.15
2023-03-29T06:35:52.248Z,71.19
2023-03-29T06:36:55.190Z,70.91
2023-03-29T06:37:57.091Z,71.71
2023-03-29T06:38:59.731Z,71.13
2023-03-29T06:40:03.353Z,71.87
2023-03-29T06:41:08.189Z,72.34
2023-03-29T06:42:20.475Z,72.84
2023-03-29T06:43:23.354Z,72.09
2023-03-29T06:44:28.553Z,72.70
2023-03-29T06:45:38.930Z,72.56
2023-03-29T06:46:41.035Z,73.09
2023-03-29T06:47:43.164Z,73.45
2023-03-29T06:48:46.126Z,73.65
2023-03-29T06:49:48.161Z,74.13
2023-03-29T06:50:50.501Z,74.19
2023-03-29T06:51:53.200Z,74.51
2023-03-29T06:52:55.148Z,74.16
2023-03-29T06:53:57.183Z,74.26
2023-03-29T06:55:01.895Z,74.48
2023-03-29T06:56:09.644Z,74.50
2023-03-29T06:57:13.397Z,75.36
2023-03-29T06:58:15.714Z,74.94
2023-03-29T06:59:18.292Z,74.63
2023-03-29T07:00:28.309Z,74.49
2023-03-29T07:01:30.471Z,75.59
2023-03-29T07:02:32.499Z,75.66
2023-03-29T07:03:35.593Z,75.50
2023-03-29T07:04:37.571Z,76.11
2023-03-29T07:05:42.917Z,75.76
2023-03-29T07:06:48.585Z,75.99
2023-03-29T07:08:08.465Z,75.65
2023-03-29T07:09:13.286Z,76.14
2023-03-29T07:10:15.299Z,76.26
2023-03-29T07:11:19.085Z,76.53
2023-03-29T07:12:23.178Z,75.94
2023-03-29T07:13:26.559Z,76.26
2023-03-29T07:14:31.698Z,76.95
2023-03-29T07:15:34.351Z,76.81
2023-03-29T07:16:37.881Z,77.01
2023-03-29T07:17:39.977Z,76.56
2023-03-29T07:18:44.321Z,77.67
2023-03-29T07:19:47.099Z,77.33
2023-03-29T07:20:49.595Z,77.33
2023-03-29T07:21:53.666Z,76.99
2023-03-29T07:22:55.633Z,76.62
2023-03-29T07:24:00.667Z,77.32
2023-03-29T07:25:02.647Z,77.15
2023-03-29T07:26:08.238Z,76.96
2023-03-29T07:27:10.390Z,77.48
2023-03-29T07:28:13.117Z,76.56
2023-03-29T07:29:16.680Z,77.17
2023-03-29T07:30:23.059Z,76.33
2023-03-29T07:31:25.063Z,77.15
2023-03-29T07:32:28.558Z,76.31
2023-03-29T07:33:30.802Z,76.75
2023-03-29T07:34:33.505Z,76.24
2023-03-29T07:35:36.376Z,76.42
2023-03-29T07:36:39.419Z,76.65
2023-03-29T07:37:43.117Z,76.18
2023-03-29T07:38:45.243Z,76.09
2023-03-29T07:39:47.907Z,76.60
2023-03-29T07:40:49.934Z,75.69
2023-03-29T07:41:51.967Z,75.66
2023-03-29T07:42:56.881Z,75.68
2023-03-29T07:43:59.208Z,74.80
2023-03-29T07:45:01.613Z,75.42
2023-03-29T07:46:05.135Z,75.18
2023-03-29T07:47:07.145Z,74.67
2023-03-29T07:48:09.308Z,74.68
2023-03-29T07:49:11.298Z,73.58
2023-03-29T07:50:14.760Z,74.09
2023-03-29T07:51:17.506Z,73.10
2023-03-29T07:52:19.491Z,73.80
2023-03-29T07:53:22.053Z,73.73
2023-03-29T07:54:24.200Z,73.08
2023-03-29T07:55:26.403Z,73.01
2023-03-29T07:56:28.361Z,73.68
2023-03-29T07:57:30.570Z,72.79
2023-03-29T07:58:32.613Z,73.20
2023-03-29T07:59:34.564Z,73.54
2023-03-29T08:00:36.522Z,74.62
2023-03-29T08:01:39.465Z,74.57
2023-03-29T08:02:50.001Z,74.09
2023-03-29T08:03:52.752Z,74.45
2023-03-29T08:04:54.934Z,74.02
2023-03-29T08:05:57.102Z,74.05
2023-03-29T08:06:59.093Z,74.33
2023-03-29T08:08:01.218Z,75.39
2023-03-29T08:09:03.261Z,74.56
2023-03-29T08:10:05.890Z,74.45
2023-03-29T08:11:09.142Z,74.99
2023-03-29T08:12:11.241Z,74.78
2023-03-29T08:13:13.653Z,75.02
2023-03-29T08:14:15.724Z,75.85
2023-03-29T08:15:17.890Z,75.44
2023-03-29T08:16:19.959Z,75.43
2023-03-29T08:17:22.579Z,76.07
2023-03-29T08:18:24.543Z,75.93
2023-03-29T08:19:27.324Z,75.50
2023-03-29T08:20:29.368Z,75.88
2023-03-29T08:21:32.162Z,74.75
2023-03-29T08:22:34.856Z,75.14
2023-03-29T08:23:36.973Z,74.70
2023-03-29T08:24:39.083Z,75.17
2023-03-29T08:25:41.705Z,74.74
2023-03-29T08:26:43.765Z,74.15
2023-03-29T08:27:45.726Z,74.73
2023-03-29T08:28:47.850Z,74.52
2023-03-29T08:29:49.848Z,75.12
2023-03-29T08:30:53.011Z,74.98
2023-03-29T08:31:56.711Z,74.26
2023-03-29T08:32:58.895Z,74.65
2023-03-29T08:34:01.110Z,75.17
2023-03-29T08:35:07.662Z,75.04
2023-03-29T08:36:10.472Z,74.21
2023-03-29T08:37:12.701Z,75.04
2023-03-29T08:38:15.080Z,73.92
2023-03-29T08:39:18.497Z,73.95
2023-03-29T08:40:28.510Z,74.14
2023-03-29T08:41:57.970Z,73.49
2023-03-29T08:43:12.611Z,74.46
2023-03-29T08:44:43.788Z,73.74
2023-03-29T08:46:35.325Z,73.73
2023-03-29T08:47:57.045Z,73.83
2023-03-29T08:49:04.474Z,72.92
2023-03-29T08:50:07.729Z,72.32
2023-03-29T08:51:19.850Z,73.57
2023-03-29T08:52:38.932Z,73.41
2023-03-29T08:53:47.168Z,72.10
2023-03-29T08:54:54.022Z,72.18
2023-03-29T08:55:59.369Z,72.30
2023-03-29T08:57:10.791Z,71.72
2023-03-29T08:58:17.981Z,73.10
2023-03-29T08:59:29.963Z,73.11
2023-03-29T09:00:43.161Z,71.49
2023-03-29T09:01:48.029Z,71.33
2023-03-29T09:02:54.190Z,70.88
2023-03-29T09:04:10.321Z,70.52
2023-03-29T09:05:29.785Z,70.77
2023-03-29T09:06:31.879Z,70.41
2023-03-29T09:07:34.055Z,69.87
2023-03-29T09:08:42.777Z,69.95
2023-03-29T09:09:45.246Z,70.40
2023-03-29T09:10:59.798Z,70.34
2023-03-29T09:12:17.398Z,70.78
2023-03-29T09:13:30.254Z,70.25
2023-03-29T09:14:56.873Z,69.71
2023-03-29T09:16:06.358Z,70.60
2023-03-29T09:17:20.357Z,70.01
2023-03-29T09:18:27.205Z,70.90
2023-03-29T09:19:39.647Z,69.72
2023-03-29T09:20:51.557Z,71.17
2023-03-29T09:22:05.835Z,70.87
2023-03-29T09:23:47.457Z,70.97
2023-03-29T09:25:14.402Z,70.50
2023-03-29T09:26:46.035Z,70.65
2023-03-29T09:27:57.172Z,71.04
2023-03-29T09:29:19.006Z,70.42
2023-03-29T09:30:26.831Z,69.52
2023-03-29T09:31:41.901Z,68.76
2023-03-29T09:32:54.209Z,69.29
2023-03-29T09:34:14.561Z,68.88
2023-03-29T09:35:32.342Z,69.96
2023-03-29T09:36:42.807Z,69.98
2023-03-29T09:37:48.018Z,69.03
2023-03-29T09:38:54.488Z,69.23
2023-03-29T09:39:57.978Z,69.24
2023-03-29T09:41:07.284Z,69.02
2023-03-29T09:42:12.267Z,68.48
2023-03-29T09:43:18.669Z,68.55
2023-03-29T09:44:31.166Z,69.63
2023-03-29T09:45:35.823Z,69.04
2023-03-29T09:46:41.485Z,69.57
2023-03-29T09:48:19.551Z,68.62
2023-03-29T09:49:26.016Z,69.07
2023-03-29T09:50:34.226Z,68.66
2023-03-29T09:51:37.749Z,69.12
2023-03-29T09:52:39.841Z,68.87
2023-03-29T09:53:41.843Z,68.79
2023-03-29T09:54:44.675Z,69.49
2023-03-29T09:55:51.134Z,68.45
2023-03-29T09:56:53.443Z,68.81
2023-03-29T09:57:58.310Z,68.83
2023-03-29T09:59:01.040Z,69.28
2023-03-29T10:00:05.983Z,69.17
2023-03-29T10:01:11.262Z,68.88
2023-03-29T10:02:14.323Z,68.25
2023-03-29T10:03:24.073Z,67.88
2023-03-29T10:04:26.332Z,68.34
2023-03-29T10:05:30.293Z,67.57
2023-03-29T10:06:34.600Z,67.99
2023-03-29T10:07:46.539Z,67.82
2023-03-29T10:08:57.908Z,67.12
2023-03-29T10:10:00.622Z,67.77
2023-03-29T10:11:07.890Z,67.36
2023-03-29T10:12:11.996Z,67.72
2023-03-29T10:13:16.838Z,68.49
2023-03-29T10:14:20.848Z,67.70
2023-03-29T10:15:29.174Z,67.39
2023-03-29T10:16:35.396Z,67.50
2023-03-29T10:17:40.902Z,67.77
2023-03-29T10:18:43.223Z,67.64
2023-03-29T10:19:50.144Z,67.70
2023-03-29T10:20:58.108Z,67.99
2023-03-29T10:22:00.897Z,67.38
2023-03-29T10:23:02.847Z,67.60
2023-03-29T10:24:04.867Z,67.43
2023-03-29T10:25:13.670Z,67.45
2023-03-29T10:26:24.287Z,67.08
2023-03-29T10:27:29.437Z,67.60
2023-03-29T10:28:32.288Z,67.10
2023-03-29T10:29:39.031Z,67.36
2023-03-29T10:30:40.887Z,67.34
2023-03-29T10:31:43.378Z,67.42
2023-03-29T10:32:45.270Z,67.48
2023-03-29T10:33:51.637Z,68.11
2023-03-29T10:34:53.944Z,68.77
2023-03-29T10:35:57.584Z,68.32
2023-03-29T10:37:00.404Z,68.44
2023-03-29T10:38:04.946Z,68.74
2023-03-29T10:39:07.145Z,68.79
2023-03-29T10:40:19.141Z,69.42
2023-03-29T10:41:23.540Z,68.69
2023-03-29T10:42:26.598Z,69.32
2023-03-29T10:43:39.188Z,69.29
2023-03-29T10:44:41.455Z,68.93
2023-03-29T10:45:43.918Z,68.76
2023-03-29T10:46:46.809Z,67.57
2023-03-29T10:47:48.834Z,67.43
2023-03-29T10:48:52.074Z,67.15
2023-03-29T10:49:59.119Z,68.32
2023-03-29T10:51:02.285Z,68.14
2023-03-29T10:52:07.202Z,68.02
2023-03-29T10:53:19.873Z,68.22
2023-03-29T10:54:24.378Z,68.26
2023-03-29T10:55:28.709Z,67.70
2023-03-29T10:56:33.463Z,66.64
2023-03-29T10:57:50.548Z,67.44
2023-03-29T10:58:58.439Z,68.12
2023-03-29T11:00:00.215Z,67.62
2023-03-29T11:01:03.312Z,67.54
2023-03-29T11:02:14.664Z,67.61
2023-03-29T11:03:22.376Z,67.43
2023-03-29T11:04:27.658Z,67.14
2023-03-29T11:05:48.314Z,67.75
2023-03-29T11:06:59.236Z,67.26
2023-03-29T11:08:13.101Z,67.40
2023-03-29T11:09:14.849Z,67.23
2023-03-29T11:10:35.423Z,67.58
2023-03-29T11:12:04.451Z,67.39
2023-03-29T11:13:25.024Z,67.42
2023-03-29T11:14:42.279Z,67.08
2023-03-29T11:15:51.715Z,67.24
2023-03-29T11:17:01.682Z,67.11
2023-03-29T11:18:09.726Z,66.74
2023-03-29T11:19:12.820Z,67.20
2023-03-29T11:20:20.860Z,67.04
2023-03-29T11:21:36.403Z,66.99
2023-03-29T11:22:44.910Z,67.00
2023-03-29T11:23:47.224Z,67.01
2023-03-29T11:24:51.989Z,67.05
2023-03-29T11:26:01.176Z,67.19
2023-03-29T11:27:23.095Z,67.49
2023-03-29T11:28:29.092Z,67.57
2023-03-29T11:29:49.315Z,66.91
2023-03-29T11:31:09.762Z,67.21
2023-03-29T11:32:11.677Z,67.42
2023-03-29T11:33:20.745Z,66.89
2023-03-29T11:34:29.149Z,66.92
2023-03-29T11:35:45.840Z,67.35
2023-03-29T11:36:59.590Z,67.25
2023-03-29T11:38:10.597Z,66.90
2023-03-29T11:39:12.401Z,67.12
2023-03-29T11:40:20.207Z,67.13
2023-03-29T11:41:25.399Z,67.07
2023-03-29T11:42:29.754Z,67.11
2023-03-29T11:43:32.453Z,67.52
2023-03-29T11:44:35.885Z,67.66
2023-03-29T11:45:47.062Z,67.57
2023-03-29T11:46:51.996Z,67.29
2023-03-29T11:47:55.040Z,67.86
2023-03-29T11:49:02.953Z,67.39
2023-03-29T11:50:08.045Z,67.49
2023-03-29T11:51:13.187Z,67.79
2023-03-29T11:52:33.968Z,67.26
2023-03-29T11:53:39.771Z,66.91
2023-03-29T11:54:45.084Z,67.43
2023-03-29T11:55:48.563Z,67.31
2023-03-29T11:56:55.244Z,67.78
2023-03-29T11:57:57.061Z,67.46
2023-03-29T11:59:01.683Z,67.44
2023-03-29T12:00:12.653Z,68.05
2023-03-29T12:01:18.083Z,66.94
2023-03-29T12:02:29.892Z,67.05
2023-03-29T12:03:46.932Z,67.75
2023-03-29T12:04:51.775Z,68.33
2023-03-29T12:06:00.449Z,68.34
2023-03-29T12:07:09.588Z,68.54
2023-03-29T12:08:17.149Z,68.44
2023-03-29T12:09:21.957Z,67.66
2023-03-29T12:10:27.592Z,67.23
2023-03-29T12:11:32.128Z,68.02
2023-03-29T12:12:46.752Z,67.36
2023-03-29T12:13:54.794Z,67.96
2023-03-29T12:15:11.079Z,67.56
2023-03-29T12:16:18.571Z,67.48
2023-03-29T12:17:23.467Z,67.66
2023-03-29T12:18:31.020Z,67.51
2023-03-29T12:19:56.013Z,67.75
2023-03-29T12:21:02.552Z,67.66
2023-03-29T12:22:08.215Z,68.12
2023-03-29T12:23:13.094Z,67.53
2023-03-29T12:24:16.569Z,67.49
2023-03-29T12:25:23.318Z,67.39
2023-03-29T12:26:25.978Z,66.79
2023-03-29T12:27:27.825Z,67.91
2023-03-29T12:28:48.639Z,67.40
2023-03-29T12:30:08.891Z,67.12
2023-03-29T12:31:29.428Z,66.56
2023-03-29T12:32:37.860Z,66.47
2023-03-29T12:33:39.588Z,66.89
2023-03-29T12:34:59.992Z,67.32
2023-03-29T12:36:04.779Z,67.55
2023-03-29T12:37:09.635Z,67.14
2023-03-29T12:38:19.961Z,66.92
2023-03-29T12:39:22.570Z,66.64
2023-03-29T12:40:27.914Z,66.27
2023-03-29T12:41:36.418Z,66.15
2023-03-29T12:42:48.430Z,66.19
2023-03-29T12:43:51.142Z,65.59
2023-03-29T12:44:59.977Z,66.52
2023-03-29T12:46:07.630Z,67.01
2023-03-29T12:47:18.731Z,67.54
2023-03-29T12:48:22.630Z,66.61
2023-03-29T12:49:29.954Z,66.30
2023-03-29T12:50:37.172Z,66.93
2023-03-29T12:51:41.285Z,66.65
2023-03-29T12:52:43.227Z,67.10
2023-03-29T12:53:45.281Z,66.40
2023-03-29T12:54:53.642Z,67.03
2023-03-29T12:56:02.169Z,66.51
2023-03-29T12:57:27.767Z,67.19
2023-03-29T12:58:47.942Z,66.88
2023-03-29T12:59:50.155Z,66.54
2023-03-29T13:01:06.116Z,66.04
2023-03-29T13:02:19.911Z,66.44
2023-03-29T13:03:27.780Z,66.92
2023-03-29T13:04:38.086Z,66.21
2023-03-29T13:05:39.900Z,67.28
2023-03-29T13:06:47.657Z,66.11
2023-03-29T13:07:49.552Z,66.43
2023-03-29T13:08:57.754Z,66.25
2023-03-29T13:10:02.615Z,66.66
2023-03-29T13:11:05.549Z,66.75
2023-03-29T13:12:13.304Z,67.09
2023-03-29T13:13:21.172Z,66.35
2023-03-29T13:14:26.381Z,66.62
2023-03-29T13:15:35.942Z,67.10
2023-03-29T13:16:40.503Z,67.63
2023-03-29T13:17:43.760Z,67.13
2023-03-29T13:19:02.932Z,67.46
2023-03-29T13:20:11.122Z,66.59
2023-03-29T13:21:21.251Z,67.36
2023-03-29T13:22:43.311Z,66.98
2023-03-29T13:23:57.478Z,67.62
2023-03-29T13:25:02.731Z,67.41
2023-03-29T13:26:08.404Z,67.38
2023-03-29T13:27:10.797Z,67.37
2023-03-29T13:28:30.413Z,66.93
2023-03-29T13:29:38.291Z,67.30
2023-03-29T13:30:50.421Z,67.12
2023-03-29T13:31:54.971Z,67.11
2023-03-29T13:33:06.892Z,66.79
2023-03-29T13:34:31.319Z,66.50
2023-03-29T13:35:44.999Z,66.01
2023-03-29T13:36:54.108Z,65.83
2023-03-29T13:38:14.853Z,66.23
2023-03-29T13:39:19.672Z,66.49
2023-03-29T13:40:32.082Z,66.72
2023-03-29T13:41:46.360Z,66.74
2023-03-29T13:42:57.430Z,66.64
2023-03-29T13:43:59.878Z,66.31
2023-03-29T13:45:24.695Z,65.87
2023-03-29T13:46:37.598Z,66.17
2023-03-29T13:47:58.799Z,66.05
2023-03-29T13:49:06.256Z,66.28
2023-03-29T13:50:31.263Z,66.63
2023-03-29T13:51:33.027Z,66.46
2023-03-29T13:52:39.076Z,66.95
2023-03-29T13:53:44.470Z,66.50
2023-03-29T13:55:04.691Z,66.04
2023-03-29T13:56:08.811Z,64.68
2023-03-29T13:57:10.718Z,66.00
2023-03-29T13:58:32.888Z,65.18
2023-03-29T14:00:07.432Z,65.41
2023-03-29T14:01:12.482Z,64.70
2023-03-29T14:02:20.129Z,64.63
2023-03-29T14:03:29.879Z,64.41
2023-03-29T14:04:34.940Z,63.44
2023-03-29T14:05:38.852Z,64.65
2023-03-29T14:06:43.069Z,64.34
2023-03-29T14:07:48.017Z,64.57
2023-03-29T14:08:50.206Z,63.82
2023-03-29T14:09:52.880Z,64.40
2023-03-29T14:10:55.949Z,63.77
2023-03-29T14:12:01.584Z,63.30
2023-03-29T14:13:04.316Z,63.35
2023-03-29T14:14:08.556Z,64.49
2023-03-29T14:15:18.639Z,64.93